createdAt,value
2022-12-12T00:00:15.485Z,99175.28
2022-12-12T00:04:17.419Z,99188.25
2022-12-12T00:08:19.245Z,99169.44
2022-12-12T00:12:21.079Z,99172.16
2022-12-12T00:16:23.273Z,99179.72
2022-12-12T00:20:25.187Z,99173.66
2022-12-12T00:24:26.992Z,99170.09
2022-12-12T00:28:29.087Z,99163.59
2022-12-12T00:32:30.952Z,99172.34
2022-12-12T00:36:33.379Z,99181.34
2022-12-12T00:40:35.818Z,99173.81
2022-12-12T00:44:37.654Z,99176.22
2022-12-12T00:48:39.490Z,99175.88
2022-12-12T00:52:41.305Z,99181.09
2022-12-12T00:56:43.088Z,99178.81
2022-12-12T01:00:44.953Z,99193.44
2022-12-12T01:04:46.799Z,99190.16
2022-12-12T01:08:48.723Z,99191.44
2022-12-12T01:12:50.520Z,99189.06
2022-12-12T01:16:52.354Z,99170.53
2022-12-12T01:20:54.433Z,99186.63
2022-12-12T01:24:57.089Z,99184.44
2022-12-12T01:28:58.874Z,99189.75
2022-12-12T01:33:00.862Z,99193.56
2022-12-12T01:37:02.717Z,99191.25
2022-12-12T01:41:04.785Z,99184.31
2022-12-12T01:45:07.405Z,99178.84
2022-12-12T01:49:25.338Z,99199.06
2022-12-12T01:53:27.268Z,99197.91
2022-12-12T01:57:41.040Z,99196.50
2022-12-12T02:01:43.008Z,99189.84
2022-12-12T02:05:52.335Z,99192.41
2022-12-12T02:10:00.344Z,99195.44
2022-12-12T02:14:02.152Z,99184.28
2022-12-12T02:18:21.295Z,99195.34
2022-12-12T02:23:00.153Z,99193.09
2022-12-12T02:27:25.309Z,99187.94
2022-12-12T02:31:33.152Z,99187.94
2022-12-12T02:35:54.138Z,99187.00
2022-12-12T02:40:13.873Z,99182.41
2022-12-12T02:44:42.211Z,99188.84
2022-12-12T02:49:06.738Z,99182.72
2022-12-12T02:53:08.747Z,99188.03
2022-12-12T02:57:18.494Z,99187.75
2022-12-12T03:02:27.718Z,99187.03
2022-12-12T03:07:35.705Z,99178.59
2022-12-12T03:11:49.682Z,99184.94
2022-12-12T03:16:27.760Z,99180.25
2022-12-12T03:21:14.668Z,99185.03
2022-12-12T03:25:28.646Z,99185.03
2022-12-12T03:29:39.486Z,99167.06
2022-12-12T03:33:59.139Z,99173.88
2022-12-12T03:38:26.709Z,99177.69
2022-12-12T03:42:43.276Z,99188.31
2022-12-12T03:47:20.417Z,99176.28
2022-12-12T03:51:27.745Z,99183.91
2022-12-12T03:55:34.568Z,99176.03
2022-12-12T03:59:59.508Z,99178.03
2022-12-12T04:04:16.646Z,99177.28
2022-12-12T04:08:18.522Z,99183.16
2022-12-12T04:12:58.617Z,99172.47
2022-12-12T04:17:00.803Z,99182.06
2022-12-12T04:21:52.040Z,99183.31
2022-12-12T04:26:29.011Z,99192.31
2022-12-12T04:30:31.358Z,99195.41
2022-12-12T04:35:19.577Z,99200.13
2022-12-12T04:39:21.446Z,99197.22
2022-12-12T04:43:29.004Z,99201.44
2022-12-12T04:47:30.859Z,99198.03
2022-12-12T04:51:36.732Z,99197.13
2022-12-12T04:55:41.727Z,99209.28
2022-12-12T04:59:43.894Z,99211.19
2022-12-12T05:03:59.733Z,99210.44
2022-12-12T05:08:07.672Z,99204.69
2022-12-12T05:12:09.669Z,99217.09
2022-12-12T05:16:20.249Z,99217.16
2022-12-12T05:20:22.093Z,99216.69
2022-12-12T05:24:23.876Z,99225.41
2022-12-12T05:28:25.728Z,99218.09
2022-12-12T05:32:27.492Z,99227.31
2022-12-12T05:36:29.459Z,99224.69
2022-12-12T05:40:31.297Z,99225.03
2022-12-12T05:44:33.161Z,99231.84
2022-12-12T05:48:35.069Z,99235.59
2022-12-12T05:52:36.945Z,99229.91
2022-12-12T05:56:38.679Z,99233.56
2022-12-12T06:00:40.560Z,99234.75
2022-12-12T06:04:42.556Z,99234.75
2022-12-12T06:08:44.661Z,99235.69
2022-12-12T06:12:46.799Z,99239.06
2022-12-12T06:16:48.731Z,99237.63
2022-12-12T06:20:51.004Z,99240.91
2022-12-12T06:24:53.253Z,99236.25
2022-12-12T06:28:55.802Z,99255.03
2022-12-12T06:32:58.812Z,99265.47
2022-12-12T06:37:01.776Z,99260.66
2022-12-12T06:41:13.984Z,99264.28
2022-12-12T06:45:17.266Z,99267.59
2022-12-12T06:49:21.408Z,99266.94
2022-12-12T06:53:23.604Z,99260.16
2022-12-12T06:57:25.817Z,99268.50
2022-12-12T07:01:27.905Z,99277.28
2022-12-12T07:05:30.182Z,99282.50
2022-12-12T07:09:32.298Z,99280.41
2022-12-12T07:13:34.267Z,99280.69
2022-12-12T07:17:36.169Z,99281.88
2022-12-12T07:21:40.626Z,99288.00
2022-12-12T07:25:44.692Z,99309.75
2022-12-12T07:29:47.016Z,99301.84
2022-12-12T07:33:48.941Z,99299.28
2022-12-12T07:37:50.837Z,99302.84
2022-12-12T07:41:55.183Z,99298.63
2022-12-12T07:45:57.016Z,99303.97
2022-12-12T07:49:58.821Z,99304.31
2022-12-12T07:54:00.931Z,99304.31
2022-12-12T07:58:02.726Z,99316.88
2022-12-12T08:02:04.595Z,99306.88
2022-12-12T08:06:07.290Z,99301.28
2022-12-12T08:10:09.622Z,99306.25
2022-12-12T08:14:13.266Z,99309.44
2022-12-12T08:18:15.255Z,99317.88
2022-12-12T08:22:17.081Z,99327.31
2022-12-12T08:26:19.118Z,99325.88
2022-12-12T08:30:21.974Z,99323.66
2022-12-12T08:34:25.225Z,99322.94
2022-12-12T08:38:27.140Z,99314.56
2022-12-12T08:42:29.191Z,99331.63
2022-12-12T08:46:31.127Z,99337.13
2022-12-12T08:50:33.860Z,99324.31
2022-12-12T08:54:37.657Z,99335.88
2022-12-12T08:58:39.667Z,99343.91
2022-12-12T09:02:41.856Z,99360.34
2022-12-12T09:06:47.721Z,99367.72
2022-12-12T09:10:50.623Z,99369.75
2022-12-12T09:14:52.525Z,99363.34
2022-12-12T09:18:56.683Z,99363.59
2022-12-12T09:22:59.102Z,99366.38
2022-12-12T09:27:01.031Z,99367.69
2022-12-12T09:31:10.179Z,99367.31
2022-12-12T09:35:12.406Z,99372.81
2022-12-12T09:39:14.688Z,99374.81
2022-12-12T09:43:26.123Z,99378.22
2022-12-12T09:47:49.782Z,99373.50
2022-12-12T09:51:51.683Z,99357.50
2022-12-12T09:56:23.395Z,99369.41
2022-12-12T10:00:25.200Z,99361.59
2022-12-12T10:05:02.764Z,99366.69
2022-12-12T10:09:26.185Z,99369.81
2022-12-12T10:13:29.381Z,99372.75
2022-12-12T10:17:44.344Z,99374.97
2022-12-12T10:21:46.574Z,99385.25
2022-12-12T10:26:30.716Z,99396.22
2022-12-12T10:30:32.494Z,99392.06
2022-12-12T10:35:03.196Z,99381.31
2022-12-12T10:39:23.162Z,99390.59
2022-12-12T10:44:01.788Z,99395.16
2022-12-12T10:48:03.707Z,99389.34
2022-12-12T10:52:11.668Z,99379.34
2022-12-12T10:56:21.823Z,99389.03
2022-12-12T11:00:33.690Z,99390.31
2022-12-12T11:04:35.511Z,99379.34
2022-12-12T11:08:37.608Z,99373.47
2022-12-12T11:12:39.588Z,99380.84
2022-12-12T11:16:43.228Z,99378.16
2022-12-12T11:21:01.347Z,99380.63
2022-12-12T11:25:03.518Z,99384.66
2022-12-12T11:29:08.232Z,99389.59
2022-12-12T11:33:19.274Z,99386.72
2022-12-12T11:37:24.270Z,99388.81
2022-12-12T11:41:26.133Z,99386.28
2022-12-12T11:45:28.091Z,99399.09
2022-12-12T11:49:32.321Z,99400.94
2022-12-12T11:53:43.869Z,99387.44
2022-12-12T11:58:55.090Z,99394.25
2022-12-12T12:03:22.516Z,99394.59
2022-12-12T12:07:39.214Z,99385.75
2022-12-12T12:12:18.776Z,99395.50
2022-12-12T12:17:29.521Z,99394.72
2022-12-12T12:22:14.559Z,99393.81
2022-12-12T12:26:42.310Z,99387.03
2022-12-12T12:31:24.074Z,99389.50
2022-12-12T12:35:30.102Z,99393.03
2022-12-12T12:40:12.107Z,99403.31
2022-12-12T12:44:34.833Z,99401.00
2022-12-12T12:48:40.909Z,99398.66
2022-12-12T12:52:55.252Z,99395.25
2022-12-12T12:57:13.809Z,99400.31
2022-12-12T13:01:19.687Z,99401.13
2022-12-12T13:05:46.566Z,99404.97
2022-12-12T13:10:15.651Z,99397.81
2022-12-12T13:14:46.586Z,99406.56
2022-12-12T13:18:55.118Z,99402.97
2022-12-12T13:23:27.132Z,99420.88
2022-12-12T13:27:41.211Z,99414.19
2022-12-12T13:32:10.307Z,99419.66
2022-12-12T13:36:24.597Z,99421.09
2022-12-12T13:40:39.049Z,99433.66
2022-12-12T13:44:45.192Z,99419.63
2022-12-12T13:49:23.671Z,99441.03
2022-12-12T13:53:25.508Z,99442.38
2022-12-12T13:57:42.295Z,99438.25
2022-12-12T14:01:44.135Z,99443.59
2022-12-12T14:05:50.626Z,99448.53
2022-12-12T14:09:54.372Z,99454.16
2022-12-12T14:14:08.945Z,99437.81
2022-12-12T14:18:28.498Z,99458.59
2022-12-12T14:22:37.823Z,99468.88
2022-12-12T14:26:39.624Z,99467.44
2022-12-12T14:30:48.207Z,99463.41
2022-12-12T14:35:18.968Z,99470.06
2022-12-12T14:39:45.763Z,99466.28
2022-12-12T14:44:36.122Z,99480.00
2022-12-12T14:48:30.462Z,99477.28
2022-12-12T14:52:32.295Z,99480.09
2022-12-12T14:56:47.620Z,99482.97
2022-12-12T15:00:57.038Z,99483.34
2022-12-12T15:05:04.911Z,99496.66
2022-12-12T15:09:26.699Z,99492.81
2022-12-12T15:13:28.696Z,99497.47
2022-12-12T15:17:32.488Z,99493.19
2022-12-12T15:21:34.387Z,99501.69
2022-12-12T15:25:47.973Z,99537.75
2022-12-12T15:29:49.804Z,99534.44
2022-12-12T15:33:51.734Z,99536.72
2022-12-12T15:38:07.309Z,99531.19
2022-12-12T15:42:12.072Z,99538.84
2022-12-12T15:46:14.838Z,99535.47
2022-12-12T15:50:21.504Z,99544.38
2022-12-12T15:54:25.472Z,99541.31
2022-12-12T15:58:33.461Z,99559.28
2022-12-12T16:02:40.920Z,99552.75
2022-12-12T16:06:44.778Z,99554.81
2022-12-12T16:10:52.577Z,99553.38
2022-12-12T16:14:54.461Z,99566.47
2022-12-12T16:19:07.342Z,99552.56
2022-12-12T16:23:45.116Z,99565.47
2022-12-12T16:28:09.790Z,99555.31
2022-12-12T16:32:14.974Z,99584.19
2022-12-12T16:36:16.914Z,99583.44
2022-12-12T16:40:20.135Z,99581.53
2022-12-12T16:44:22.369Z,99585.50
2022-12-12T16:48:43.286Z,99593.78
2022-12-12T16:52:45.286Z,99588.50
2022-12-12T16:56:57.350Z,99588.41
2022-12-12T17:01:00.452Z,99590.66
2022-12-12T17:05:20.871Z,99592.44
2022-12-12T17:09:29.808Z,99589.00
2022-12-12T17:13:33.999Z,99597.84
2022-12-12T17:17:47.661Z,99595.09
2022-12-12T17:21:49.719Z,99596.59
2022-12-12T17:25:53.690Z,99601.00
2022-12-12T17:30:02.377Z,99614.97
2022-12-12T17:34:05.795Z,99609.50
2022-12-12T17:38:15.905Z,99614.88
2022-12-12T17:42:18.641Z,99603.03
2022-12-12T17:46:21.107Z,99601.56
2022-12-12T17:50:23.199Z,99607.19
2022-12-12T17:54:25.393Z,99608.59
2022-12-12T17:58:35.141Z,99616.28
2022-12-12T18:02:42.474Z,99605.47
2022-12-12T18:06:51.460Z,99601.72
2022-12-12T18:10:53.695Z,99609.84
2022-12-12T18:15:03.867Z,99615.81
2022-12-12T18:19:47.320Z,99613.56
2022-12-12T18:23:58.036Z,99617.13
2022-12-12T18:28:05.541Z,99616.31
2022-12-12T18:32:10.650Z,99627.06
2022-12-12T18:36:20.395Z,99630.34
2022-12-12T18:40:25.415Z,99632.34
2022-12-12T18:44:27.509Z,99636.16
2022-12-12T18:48:40.015Z,99650.72
2022-12-12T18:52:50.694Z,99639.47
2022-12-12T18:56:58.787Z,99647.25
2022-12-12T19:01:09.642Z,99634.84
2022-12-12T19:05:13.436Z,99645.94
2022-12-12T19:09:17.533Z,99641.47
2022-12-12T19:13:19.742Z,99655.69
2022-12-12T19:17:26.696Z,99650.72
2022-12-12T19:21:33.787Z,99638.63
2022-12-12T19:25:43.389Z,99635.66
2022-12-12T19:29:46.046Z,99638.28
2022-12-12T19:33:48.559Z,99628.69
2022-12-12T19:37:50.836Z,99631.22
2022-12-12T19:41:53.273Z,99635.72
2022-12-12T19:46:12.020Z,99634.41
2022-12-12T19:50:17.364Z,99649.59
2022-12-12T19:54:23.070Z,99653.38
2022-12-12T19:58:33.874Z,99650.47
2022-12-12T20:02:40.074Z,99649.22
2022-12-12T20:06:45.376Z,99659.50
2022-12-12T20:10:47.245Z,99648.91
2022-12-12T20:14:49.223Z,99655.84
2022-12-12T20:18:52.967Z,99659.66
2022-12-12T20:22:54.880Z,99656.09
2022-12-12T20:26:57.060Z,99660.75
2022-12-12T20:31:14.000Z,99644.84
2022-12-12T20:35:16.140Z,99638.31
2022-12-12T20:39:23.293Z,99642.28
2022-12-12T20:43:25.393Z,99646.59
2022-12-12T20:47:27.387Z,99639.78
2022-12-12T20:55:54.187Z,99648.47
2022-12-12T20:59:56.107Z,99651.53
2022-12-12T21:03:59.203Z,99655.78
2022-12-12T21:08:03.852Z,99649.56
2022-12-12T21:12:06.046Z,99659.97
2022-12-12T21:16:32.632Z,99662.56
2022-12-12T21:20:34.475Z,99656.09
2022-12-12T21:24:36.283Z,99662.28
2022-12-12T21:28:39.007Z,99667.41
2022-12-12T21:32:40.937Z,99658.81
2022-12-12T21:36:42.982Z,99676.88
2022-12-12T21:40:47.513Z,99677.19
2022-12-12T21:44:49.341Z,99682.66
2022-12-12T21:49:11.399Z,99671.56
2022-12-12T21:53:31.856Z,99671.50
2022-12-12T21:57:33.751Z,99669.75
2022-12-12T22:01:35.656Z,99661.81
2022-12-12T22:05:37.590Z,99675.97
2022-12-12T22:09:40.154Z,99682.16
2022-12-12T22:13:42.645Z,99678.03
2022-12-12T22:17:44.635Z,99671.13
2022-12-12T22:21:47.599Z,99671.22
2022-12-12T22:25:49.488Z,99658.53
2022-12-12T22:29:51.371Z,99666.25
2022-12-12T22:33:59.544Z,99663.31
2022-12-12T22:38:01.688Z,99658.19
2022-12-12T22:42:03.854Z,99659.16
2022-12-12T22:46:07.244Z,99665.28
2022-12-12T22:50:09.870Z,99650.41
2022-12-12T22:54:11.765Z,99657.66
2022-12-12T22:58:17.450Z,99661.50
2022-12-12T23:02:24.781Z,99664.06
2022-12-12T23:06:30.307Z,99644.69
2022-12-12T23:10:32.274Z,99642.78
2022-12-12T23:14:34.141Z,99654.19
2022-12-12T23:18:37.186Z,99647.50
2022-12-12T23:22:39.080Z,99648.13
2022-12-12T23:26:40.940Z,99652.44
2022-12-12T23:30:42.923Z,99638.88
2022-12-12T23:34:45.439Z,99645.72
2022-12-12T23:38:47.330Z,99652.03
2022-12-12T23:42:49.140Z,99651.78
2022-12-12T23:46:51.270Z,99633.81
2022-12-12T23:50:53.110Z,99642.78
2022-12-12T23:54:54.999Z,99631.34
2022-12-12T23:58:57.223Z,99651.56
